• Join FlightAware (Why Join?)
  • Login
  • US Flag 
03:37PM EDT


 

Airport Tracker/Info


-or-


 

Live Flight TrackerFlight Track Log ✈ QXE2633 ✈ 14-Aug-2013 ✈ KMSO - KPDX

Flight Track Log - Related Links

Times and Time Zones

All times are in EDT time to prevent confusion due to time zone crossing. See the QXE2633 flight status page for this flight to view local times or setup timezone preferences in your user account.

Time Position Orientation Groundspeed Altitude Reporting Facility
EDT Latitude Longitude Course Direction KTS MPH feet Rate Location/Type
03:22PM 46.8000 -114.6598 270° West  Level FlightAware Approximate
03:23PM 46.7992 -114.7864 250° West  Level FlightAware Approximate
03:24PM 46.7696 -114.8981 247° West  Level FlightAware Approximate
03:25PM 46.7400 -115.0083 240° Southwest  Level FlightAware Approximate
03:26PM 46.7075 -115.1171 255° West  Level FlightAware Approximate
03:27PM 46.6940 -115.2353 250° West  Level Estimated
03:28PM 46.6898 -115.3550 267° West  Level FlightAware Approximate
03:29PM 46.6855 -115.4747 267° West  Level FlightAware Approximate
03:30PM 46.6712 -115.5927 247° West  Level Estimated
03:31PM 46.6371 -115.7017 246° West  Level FlightAware Approximate
03:32PM 46.6230 -115.8196 248° West  Level Estimated
03:33PM 46.5915 -115.9302 248° West  Level FlightAware Approximate
03:34PM 46.5600 -116.0406 247° West  Level FlightAware Approximate
03:35PM 46.5284 -116.1509 247° West  Level FlightAware Approximate
03:36PM 46.4967 -116.2611 247° West  Level FlightAware Approximate
03:37PM 46.4648 -116.3712 247° West  Level FlightAware Approximate
03:38PM 46.4329 -116.4811 247° West  Level FlightAware Approximate
03:39PM 46.4031 -116.5831 247° West  Level FlightAware Approximate
03:40PM 46.3733 -116.6850 247° West  Level FlightAware Approximate
03:41PM 46.3624 -116.7993 262° West  Level FlightAware Approximate
03:42PM 46.3513 -116.9136 262° West  Level FlightAware Approximate
03:43PM 46.3402 -117.0278 262° West  Level FlightAware Approximate
03:44PM 46.3289 -117.1419 262° West  Level FlightAware Approximate
03:45PM 46.3175 -117.2561 262° West  Level FlightAware Approximate
03:46PM 46.3060 -117.3701 262° West  Level FlightAware Approximate
03:47PM 46.2944 -117.4841 262° West  Level FlightAware Approximate
03:48PM 46.2827 -117.5981 262° West  Level FlightAware Approximate
03:49PM 46.2709 -117.7120 261° West  Level FlightAware Approximate
03:50PM 46.2590 -117.8259 261° West  Level FlightAware Approximate
03:51PM 46.2469 -117.9397 261° West  Level FlightAware Approximate
03:52PM 46.2347 -118.0535 261° West  Level FlightAware Approximate
03:53PM 46.2157 -118.1721 256° West  Level FlightAware Approximate
03:54PM 46.1968 -118.2838 256° West  Level FlightAware Approximate
03:55PM 46.1779 -118.3955 256° West  Level FlightAware Approximate
03:56PM 46.1588 -118.5072 256° West  Level FlightAware Approximate
03:57PM 46.1396 -118.6187 256° West  Level FlightAware Approximate
03:58PM 46.1203 -118.7302 256° West  Level FlightAware Approximate
03:59PM 46.1009 -118.8416 256° West  Level FlightAware Approximate
04:00PM 46.0814 -118.9529 256° West  Level FlightAware Approximate
04:01PM 46.0618 -119.0641 256° West  Level FlightAware Approximate
04:02PM 46.0421 -119.1753 256° West  Level FlightAware Approximate
04:03PM 46.0223 -119.2864 256° West  Level FlightAware Approximate
04:04PM 46.0018 -119.3971 255° West  Level FlightAware Approximate
04:05PM 45.9812 -119.5078 255° West  Level FlightAware Approximate
04:06PM 45.9604 -119.6184 255° West  Level FlightAware Approximate
04:07PM 45.9396 -119.7289 255° West  Level FlightAware Approximate
04:08PM 45.9185 -119.8403 255° West  Level FlightAware Approximate
04:09PM 45.8982 -119.9519 255° West  Level FlightAware Approximate
04:10PM 45.8778 -120.0635 255° West  Level FlightAware Approximate
04:11PM 45.8573 -120.1750 255° West  Level FlightAware Approximate
04:12PM 45.8367 -120.2865 255° West  Level FlightAware Approximate
04:13PM 45.8160 -120.3978 255° West  Level FlightAware Approximate
04:14PM 45.7944 -120.5087 252° West  Level FlightAware Approximate
04:15PM 45.7700 -120.6184 252° West  Level FlightAware Approximate
04:16PM 45.7464 -120.7284 253° West  Level FlightAware Approximate
04:17PM 45.7228 -120.8384 253° West  Level FlightAware Approximate
04:18PM 45.7013 -120.9492 255° West  Level FlightAware Approximate
04:19PM 45.6805 -121.0602 255° West  Level FlightAware Approximate
04:20PM 45.6592 -121.1710 254° West  Level FlightAware Approximate
04:21PM 45.6372 -121.2815 254° West  Level FlightAware Approximate
04:22PM 45.6151 -121.3918 254° West  Level FlightAware Approximate
04:23PM 45.5925 -121.5020 253° West  Level FlightAware Approximate
04:24PM 45.5690 -121.6117 253° West  Level FlightAware Approximate
04:25PM 45.5485 -121.7219 248° West  Level FlightAware Approximate
04:26PM 45.5182 -121.8280 248° West  Level FlightAware Approximate
04:27PM 45.5062 -121.9370 283° West  Level FlightAware Approximate
04:28PM 45.5212 -122.0495 277° West  Level FlightAware Approximate
04:29PM 45.5315 -122.1631 277° West  Level FlightAware Approximate
04:30PM 45.5500 -122.2722 270° West  Level FlightAware Approximate
04:31PM 45.5667 -122.3745 270° West  Level FlightAware Approximate
04:32PM 45.5698 -122.4888 282° West  Level FlightAware Approximate
04:33PM 45.5833 -122.5833 282° West  Level FlightAware Approximate
04:34PM 45.5887 -122.5969 282° West  Level Estimated
04:35PM 45.5887 -122.5969 282° West  Level Estimated
04:36PM 45.5887 -122.5969 282° West  Level Estimated
04:37PM 45.5887 -122.5969 282° West  Level Estimated
04:38PM 45.5887 -122.5969 282° West  Level Estimated
04:39PM 45.5887 -122.5969 282° West  Level Estimated
04:40PM 45.5887 -122.5969 282° West  Level Estimated